^^

..:: Storico WU ::..




Lo storico viene creato da WUnderground con i dati che la stazione Meteomincio invia al loro server. L' aggiornamento viene fatto ogni 5 minuti circa, tuttavia possono esserci intervalli pi¨ ampi a causa di errori, interruzioni di servizio o problemi nell' invio tramite FTP.


Storico stazione MeteoMincio
Giorno Sommario per Gennaio 08, 2022 Unità:  Inglese    Metrico   Entrambi
Giorno Settimana Mese Anno
  Max: Min: Media:
Temperatura: 41 °F 24.6 °F 31.1 °F
Dew Point: 36 °F 23.5 °F 29.3 °F
Umidità: 98% 76.9% 93%
Velocità vento: 5.6mph 0mph 1.8mph
Raffica: 9.2mph - -
Direzione- - WSW
Pressione: 30.1 in 29.9 in -
Precipitazioni: 0.01 in    
 
 
Tabulato Dati per Gennaio 08, 2022
Ora Temperatura Dew Point Pressione Direzione Velocità vento Raffica Umidità Intensità pioggia (oraria) Info solare Situazione
00:04 32.4 °F 30 °F 30.1 in Calm     91% 0 in 0 W/m2
00:09 32.4 °F 30 °F 30.1 in Calm     91% 0 in 0 W/m2
00:14 32.2 °F 30 °F 30.1 in Calm     91.3% 0 in 0 W/m2
00:19 32.4 °F 30.2 °F 30 in Calm     91.5% 0 in 0 W/m2
00:24 32.7 °F 30.2 °F 30 in Calm     90.7% 0 in 0 W/m2
00:29 32.5 °F 30 °F 30.1 in Calm     90.3% 0 in 0 W/m2
00:34 32.4 °F 30.2 °F 30 in Calm     91% 0 in 0 W/m2
00:39 32.4 °F 30 °F 30 in Calm     91% 0 in 0 W/m2
00:44 32.2 °F 30 °F 30 in Calm     91.5% 0 in 0 W/m2
00:49 32.2 °F 30 °F 30 in Calm     91.3% 0 in 0 W/m2
00:54 32 °F 29.7 °F 30 in Calm     91% 0 in 0 W/m2
00:59 31.6 °F 29.5 °F 30 in Calm     91.9% 0 in 0 W/m2
01:04 31.5 °F 29.5 °F 30 in Calm     92.6% 0 in 0 W/m2
01:09 31.3 °F 29.5 °F 30 in Calm     93% 0 in 0 W/m2
01:14 31.3 °F 29.5 °F 30 in Calm     93% 0 in 0 W/m2
01:19 31.3 °F 29.5 °F 30 in Calm     92.8% 0 in 0 W/m2
01:24 31.3 °F 29.3 °F 30 in Calm     92.8% 0 in 0 W/m2
01:29 30.9 °F 29.1 °F 30 in Calm     93% 0 in 0 W/m2
01:34 30.7 °F 28.9 °F 30 in Calm   2 mph 93% 0 in 0 W/m2
01:39 30.4 °F 28.6 °F 30 in WNW 1.7 mph 3.5 mph 93% 0 in 0 W/m2
01:44 30.2 °F 28.6 °F 30 in West 1.4 mph 3 mph 93.3% 0 in 0 W/m2
01:49 30.4 °F 28.9 °F 30 in West 0.7 mph 2.3 mph 94% 0 in 0 W/m2
01:54 30.4 °F 28.9 °F 30 in West 0.2 mph 2 mph 94% 0 in 0 W/m2
01:59 30.2 °F 28.6 °F 30 in West 0.1 mph 1.2 mph 93.3% 0 in 0 W/m2
02:04 30.2 °F 28.8 °F 30 in WNW 1.1 mph 3 mph 94% 0 in 0 W/m2
02:09 30.2 °F 28.8 °F 30 in WNW 2.1 mph 3.5 mph 94% 0 in 0 W/m2
02:14 30.4 °F 28.8 °F 30 in WNW 1.7 mph 3.5 mph 93.8% 0 in 0 W/m2
02:19 30.2 °F 28.4 °F 30 in WNW 1.9 mph 3.5 mph 93% 0 in 0 W/m2
02:24 30.2 °F 28.4 °F 30 in WNW 2.2 mph 4 mph 93% 0 in 0 W/m2
02:29 30.4 °F 28.6 °F 30 in NW 2 mph 4 mph 93% 0 in 0 W/m2
02:34 30.4 °F 28.6 °F 30 in NW 1.7 mph 3.5 mph 93.1% 0 in 0 W/m2
02:39 30.4 °F 28.6 °F 30 in NW 0.9 mph 3 mph 93% 0 in 0 W/m2
02:44 30 °F 28.2 °F 30 in NW 0.1 mph 2 mph 93% 0 in 0 W/m2
02:49 29.7 °F 27.9 °F 30 in NW 0.2 mph 1.2 mph 93% 0 in 0 W/m2
02:54 29.5 °F 27.9 °F 30 in NW 0.2 mph 1.2 mph 93.3% 0 in 0 W/m2
02:59 29.3 °F 27.9 °F 30 in NW 0.2 mph 1.2 mph 94% 0 in 0 W/m2
03:04 29.5 °F 27.9 °F 30 in NW 0.4 mph 1.2 mph 94% 0 in 0 W/m2
03:09 29.5 °F 27.9 °F 30 in Calm   1 mph 94% 0 in 0 W/m2
03:14 29.3 °F 27.7 °F 30 in Calm     93.9% 0 in 0 W/m2
03:19 28.8 °F 27.3 °F 30 in Calm     94% 0 in 0 W/m2
03:24 28.9 °F 27.3 °F 30 in Calm     94% 0 in 0 W/m2
03:29 28.8 °F 27.3 °F 30 in Calm     94% 0 in 0 W/m2
03:34 28.9 °F 27.5 °F 30 in Calm     94% 0 in 0 W/m2
03:39 28.9 °F 27.3 °F 30 in Calm     94% 0 in 0 W/m2
03:44 28.9 °F 27.3 °F 30 in Calm     94% 0 in 0 W/m2
03:49 28.9 °F 27.3 °F 30 in Calm     94% 0 in 0 W/m2
03:54 28.9 °F 27.5 °F 30 in Calm     94% 0 in 0 W/m2
03:59 28.9 °F 27.3 °F 30 in Calm     94% 0 in 0 W/m2
04:04 28.8 °F 27.1 °F 30 in Calm     94% 0 in 0 W/m2
04:09 28.8 °F 27.3 °F 30 in Calm     94.2% 0 in 0 W/m2
04:14 28.8 °F 27.3 °F 30 in Calm     94.5% 0 in 0 W/m2
04:19 28.8 °F 27.3 °F 30 in Calm     94% 0 in 0 W/m2
04:24 28.6 °F 27.1 °F 30 in Calm     94% 0 in 0 W/m2
04:29 28.4 °F 27 °F 30 in Calm     94% 0 in 0 W/m2
04:34 28.4 °F 27 °F 30 in Calm     94% 0 in 0 W/m2
04:39 28.6 °F 27 °F 30 in Calm     94.1% 0 in 0 W/m2
04:44 28.6 °F 27.1 °F 30 in Calm     94.2% 0 in 0 W/m2
04:49 28.4 °F 27 °F 30 in Calm     94% 0 in 0 W/m2
04:54 28.2 °F 26.8 °F 30 in Calm     94% 0 in 0 W/m2
04:59 28 °F 26.8 °F 30 in Calm     94.5% 0 in 0 W/m2
05:04 28 °F 26.6 °F 30 in Calm     94.3% 0 in 0 W/m2
05:09 27.9 °F 26.6 °F 30 in Calm     94.8% 0 in 0 W/m2
05:14 28 °F 26.8 °F 30 in Calm     95% 0 in 0 W/m2
05:19 28 °F 26.8 °F 30 in Calm     95% 0 in 0 W/m2
05:24 28 °F 26.8 °F 30 in Calm     95% 0 in 0 W/m2
05:29 27.7 °F 26.4 °F 30 in SW 0.9 mph 3.5 mph 94.6% 0 in 0 W/m2
05:34 27.3 °F 25.9 °F 30 in SW 2.7 mph 4 mph 94.3% 0 in 0 W/m2
05:39 27.5 °F 26.2 °F 30 in SSW 2.7 mph 4 mph 95% 0 in 0 W/m2
05:44 27.9 °F 26.6 °F 30 in SSW 2.1 mph 3.5 mph 95% 0 in 0 W/m2
05:49 28 °F 26.8 °F 30 in SW 1.7 mph 3.5 mph 95% 0 in 0 W/m2
05:54 27.7 °F 26.4 °F 30 in SW 1.8 mph 3 mph 95% 0 in 0 W/m2
05:59 27.7 °F 26.4 °F 30 in SW 1.1 mph 2.3 mph 95% 0 in 0 W/m2
06:04 27.7 °F 26.6 °F 30 in SW 1.6 mph 3.5 mph 95.6% 0 in 0 W/m2
06:09 27.7 °F 26.6 °F 30 in SW 1.5 mph 3 mph 95.7% 0 in 0 W/m2
06:14 27.5 °F 26.2 °F 30 in SW 1.5 mph 3 mph 95% 0 in 0 W/m2
06:19 27.5 °F 26.2 °F 30 in South 1.7 mph 3.5 mph 95.5% 0 in 0 W/m2
06:24 27.5 °F 26.4 °F 30 in SE 1.7 mph 3.5 mph 96% 0 in 0 W/m2
06:29 27.3 °F 26.4 °F 30 in SE 1.2 mph 3 mph 96% 0 in 0 W/m2
06:34 27.1 °F 26.1 °F 30 in ESE 0.6 mph 3 mph 95.9% 0 in 0 W/m2
06:39 26.8 °F 25.7 °F 30 in SE 1.4 mph 3.5 mph 95.7% 0 in 0 W/m2
06:44 26.4 °F 25.5 °F 30 in South 1.2 mph 3 mph 95.9% 0 in 0 W/m2
06:49 26.2 °F 25.2 °F 30 in SSE 0.9 mph 2.3 mph 96% 0 in 0 W/m2
06:54 26.1 °F 25 °F 30 in SSE 0.9 mph 2.3 mph 96% 0 in 0 W/m2
06:59 25.7 °F 24.8 °F 30 in ESE 1.6 mph 3.5 mph 96% 0 in 0 W/m2
07:04 25.5 °F 24.4 °F 30 in ESE 0.5 mph 3 mph 96% 0 in 0 W/m2
07:09 25.3 °F 24.4 °F 30 in South 0.1 mph 2 mph 96% 0 in 0 W/m2
07:14 25.3 °F 24.3 °F 30 in WSW 2.2 mph 4 mph 96% 0 in 0 W/m2
07:19 25 °F 24.1 °F 30 in WSW 3.7 mph 5 mph 96% 0 in 0 W/m2
07:24 24.8 °F 23.7 °F 30 in WSW 3.9 mph 5 mph 96% 0 in 0 W/m2
07:29 24.6 °F 23.5 °F 30 in WSW 3.2 mph 5 mph 96% 0 in 0 W/m2
07:34 24.6 °F 23.7 °F 30 in WSW 2.3 mph 4 mph 96% 0 in 0 W/m2
07:39 24.6 °F 23.7 °F 30 in WSW 2.5 mph 4 mph 96% 0 in 0 W/m2
07:44 24.6 °F 23.7 °F 30 in West 2.6 mph 4 mph 96% 0 in 0 W/m2
07:49 25 °F 23.9 °F 30 in WNW 2 mph 4 mph 96% 0 in 0 W/m2
07:54 25.2 °F 24.1 °F 30 in West 1.5 mph 3.5 mph 96% 0 in 0 W/m2
07:59 25 °F 24.1 °F 30 in West 1.7 mph 4 mph 96% 0 in 5 W/m2
08:04 25.2 °F 24.1 °F 30 in WNW 1.6 mph 4 mph 96% 0 in 5 W/m2
08:09 25.2 °F 24.1 °F 30 in WNW 0.6 mph 3 mph 96% 0 in 9 W/m2
08:14 25 °F 24.1 °F 30 in WNW 0.9 mph 2.3 mph 96% 0 in 11 W/m2
08:19 25 °F 23.9 °F 30 in WNW 1.1 mph 2.3 mph 96% 0 in 14 W/m2
08:24 24.8 °F 23.9 °F 30 in WNW 0.7 mph 2.3 mph 96% 0 in 18 W/m2
08:29 24.8 °F 23.9 °F 30 in WNW 0.1 mph 2 mph 96% 0 in 23 W/m2
08:34 25 °F 23.9 °F 30 in Calm   2 mph 96% 0 in 26 W/m2
08:39 25 °F 23.9 °F 30 in WNW 0.4 mph 2.3 mph 96% 0 in 28 W/m2
08:44 25 °F 24.1 °F 30 in WNW 0.2 mph 2 mph 96.4% 0 in 33 W/m2
08:49 25 °F 24.1 °F 30 in WNW 0.6 mph 2.3 mph 96.4% 0 in 42 W/m2
08:54 24.8 °F 23.7 °F 30 in West 0.9 mph 2.3 mph 96% 0 in 46 W/m2
08:59 24.6 °F 23.5 °F 30 in WSW 1.5 mph 3.5 mph 96% 0 in 53 W/m2
09:04 24.6 °F 23.7 °F 30 in WSW 0.9 mph 3 mph 96% 0 in 58 W/m2
09:09 25 °F 24.1 °F 30 in WSW 0.7 mph 2.3 mph 96.2% 0 in 70 W/m2
09:14 25 °F 24.1 °F 30 in WSW 0.8 mph 2.3 mph 96% 0 in 72 W/m2
09:19 25 °F 24.1 °F 30 in WSW 1.2 mph 2.3 mph 96% 0 in 77 W/m2
09:24 25.2 °F 24.3 °F 30 in West 1.6 mph 3.5 mph 96% 0 in 90 W/m2
09:29 25.7 °F 25 °F 30 in WNW 2.2 mph 4 mph 96.8% 0 in 98 W/m2
09:34 25.9 °F 25.2 °F 30 in West 2.4 mph 4 mph 97% 0 in 100 W/m2
09:39 26.1 °F 25.3 °F 30 in West 0.8 mph 4 mph 97% 0 in 98 W/m2
09:44 26.4 °F 25.7 °F 30 in West 0.2 mph 3 mph 97% 0 in 132 W/m2
09:49 26.6 °F 25.9 °F 30 in West 0.1 mph 1.2 mph 97% 0 in 141 W/m2
09:54 27 °F 26.2 °F 30 in Calm   1 mph 97% 0 in 171 W/m2
09:59 27.1 °F 26.6 °F 30 in Calm     97% 0 in 156 W/m2
10:04 27.3 °F 26.6 °F 30 in Calm     97% 0 in 206 W/m2
10:09 27.7 °F 27 °F 30 in Calm     97% 0 in 207 W/m2
10:14 28 °F 27.3 °F 30 in Calm     97% 0 in 236 W/m2
10:19 28.6 °F 27.9 °F 30 in Calm     97% 0 in 241 W/m2
10:24 28.8 °F 28.2 °F 30 in Calm     97% 0.01 in 243 W/m2
10:29 29.1 °F 28.4 °F 30 in Calm     97% 0.01 in 271 W/m2
10:34 29.3 °F 28.8 °F 30 in Calm     97.2% 0.01 in 274 W/m2
10:39 29.7 °F 29.1 °F 30 in Calm     97.8% 0.01 in 279 W/m2
10:44 30 °F 29.5 °F 30 in Calm     98% 0.01 in 279 W/m2
10:49 30.2 °F 29.7 °F 30 in WSW 0.5 mph 3.5 mph 98% 0.01 in 297 W/m2
10:54 30.6 °F 30 °F 30 in WSW 2.7 mph 4 mph 98% 0.01 in 313 W/m2
10:59 30.6 °F 30 °F 30 in WSW 3 mph 4 mph 98% 0.01 in 320 W/m2
11:04 30.7 °F 30.2 °F 30 in West 3 mph 4 mph 98% 0.01 in 330 W/m2
11:09 30.7 °F 30.4 °F 30 in West 2.5 mph 4 mph 98% 0.01 in 348 W/m2
11:14 31.3 °F 30.9 °F 30 in WSW 2.1 mph 4 mph 98% 0.01 in 346 W/m2
11:19 31.6 °F 31.1 °F 30 in WSW 3.2 mph 5 mph 98% 0.01 in 332 W/m2
11:24 31.8 °F 31.3 °F 30 in WSW 3.2 mph 5 mph 98% 0.01 in 332 W/m2
11:29 32.2 °F 31.6 °F 30 in WSW 3.3 mph 4 mph 98% 0 in 341 W/m2
11:34 32.5 °F 32.2 °F 30 in SW 2.7 mph 5 mph 98% 0 in 338 W/m2
11:39 33.1 °F 32.5 °F 30 in WSW 3.1 mph 5 mph 97.6% 0 in 339 W/m2
11:44 33.6 °F 32.7 °F 30 in WSW 3.5 mph 6 mph 96.5% 0 in 346 W/m2
11:49 34.2 °F 32.9 °F 30 in WSW 4.2 mph 6 mph 95.2% 0 in 350 W/m2
11:54 34.7 °F 32.9 °F 30 in WSW 4.8 mph 6 mph 93.5% 0 in 353 W/m2
11:59 34.9 °F 32.9 °F 30 in WSW 4.5 mph 7 mph 92.3% 0 in 359 W/m2
12:04 35.6 °F 33.3 °F 30 in West 4.6 mph 7 mph 91.5% 0 in 359 W/m2
12:09 36.1 °F 33.6 °F 30 in WSW 3.9 mph 7 mph 90.5% 0 in 360 W/m2
12:14 36.1 °F 33.3 °F 30 in West 5.1 mph 7 mph 89.3% 0 in 360 W/m2
12:19 36.7 °F 33.8 °F 30 in West 4.3 mph 7 mph 89.6% 0 in 364 W/m2
12:24 36.9 °F 34 °F 30 in West 4.2 mph 6 mph 89% 0 in 364 W/m2
12:29 37 °F 34.2 °F 30 in WSW 4.1 mph 6 mph 89.2% 0 in 362 W/m2
12:34 37.6 °F 34.7 °F 30 in WSW 4.3 mph 7 mph 89.1% 0 in 364 W/m2
12:39 37.9 °F 34.9 °F 30 in WSW 4 mph 7 mph 88.5% 0 in 364 W/m2
12:44 38.3 °F 35.2 °F 30 in WSW 4.9 mph 7 mph 88.7% 0 in 364 W/m2
12:49 38.1 °F 35.2 °F 30 in WSW 4.9 mph 8.1 mph 89.1% 0 in 362 W/m2
12:54 38.1 °F 35.4 °F 30 in WSW 4.7 mph 8 mph 89.8% 0 in 360 W/m2
12:59 37.9 °F 35.2 °F 30 in WSW 5 mph 8.1 mph 89.9% 0 in 355 W/m2
13:04 37.8 °F 35.1 °F 30 in WSW 4.5 mph 8 mph 90% 0 in 355 W/m2
13:09 37.9 °F 35.2 °F 30 in WSW 5.2 mph 8.1 mph 90.2% 0 in 353 W/m2
13:14 38.1 °F 35.2 °F 30 in West 5.6 mph 8.1 mph 89.3% 0 in 353 W/m2
13:19 38.7 °F 35.4 °F 30 in WSW 4.8 mph 7 mph 88.4% 0 in 350 W/m2
13:24 39 °F 35.4 °F 30 in WSW 5.4 mph 8.1 mph 86.9% 0 in 350 W/m2
13:29 39 °F 35.2 °F 30 in WSW 5.4 mph 9.2 mph 86.6% 0 in 343 W/m2
13:34 39.2 °F 35.6 °F 30 in West 4.8 mph 9 mph 86.8% 0 in 338 W/m2
13:39 39.2 °F 35.8 °F 30 in WSW 4.2 mph 9 mph 87.5% 0 in 336 W/m2
13:44 39 °F 35.6 °F 30 in WSW 4.9 mph 9.2 mph 87.4% 0 in 330 W/m2
13:49 39.4 °F 35.6 °F 30 in WSW 4.3 mph 9 mph 86.5% 0 in 330 W/m2
13:54 39.6 °F 35.6 °F 30 in WSW 4.2 mph 7 mph 85.4% 0 in 325 W/m2
13:59 39.7 °F 35.8 °F 30 in WSW 3.4 mph 7 mph 85.1% 0 in 318 W/m2
14:04 40.1 °F 35.4 °F 30 in WSW 4.2 mph 6 mph 83.6% 0 in 311 W/m2
14:09 39.7 °F 35.4 °F 30 in WSW 4.2 mph 6 mph 84% 0 in 304 W/m2
14:14 40.1 °F 35.6 °F 30 in WSW 3.4 mph 6 mph 83.6% 0 in 299 W/m2
14:19 40.1 °F 35.6 °F 30 in WSW 4.3 mph 7 mph 83.8% 0 in 294 W/m2
14:24 40.3 °F 35.6 °F 30 in WSW 5.6 mph 8.1 mph 83.2% 0 in 281 W/m2
14:29 40.5 °F 35.6 °F 30 in WSW 5.2 mph 8 mph 83.1% 0 in 274 W/m2
14:34 40.8 °F 36 °F 29.9 in WSW 4.3 mph 7 mph 83% 0 in 271 W/m2
14:39 40.6 °F 35.6 °F 29.9 in WSW 5.4 mph 8.1 mph 81.9% 0 in 258 W/m2
14:44 40.5 °F 35.2 °F 29.9 in SW 5.3 mph 8 mph 81.6% 0 in 253 W/m2
14:49 40.8 °F 35.6 °F 29.9 in SW 4.2 mph 7 mph 81.6% 0 in 253 W/m2
14:54 41 °F 35.8 °F 29.9 in SW 3.9 mph 7 mph 81.5% 0 in 244 W/m2
14:59 41 °F 35.4 °F 29.9 in SSW 4.8 mph 7 mph 80.7% 0 in 229 W/m2
15:04 40.8 °F 35.2 °F 29.9 in SW 4.2 mph 7 mph 80.5% 0 in 223 W/m2
15:09 40.8 °F 34.9 °F 29.9 in WSW 4.2 mph 7 mph 78.9% 0 in 216 W/m2
15:14 41 °F 34.7 °F 29.9 in SW 3.4 mph 7 mph 78% 0 in 209 W/m2
15:19 41 °F 34.3 °F 29.9 in SW 4 mph 6 mph 76.9% 0 in 186 W/m2
15:24 40.8 °F 34.3 °F 29.9 in SW 3.7 mph 6 mph 77.4% 0 in 171 W/m2
15:29 40.8 °F 34.3 °F 29.9 in SW 3.8 mph 6 mph 77.7% 0 in 148 W/m2
15:34 40.5 °F 35.1 °F 29.9 in SW 4.2 mph 6.9 mph 80.8% 0 in 144 W/m2
15:39 40.5 °F 35.1 °F 29.9 in SSW 3.5 mph 7 mph 80.9% 0 in 128 W/m2
15:44 40.3 °F 35.1 °F 29.9 in SSW 4.3 mph 7 mph 81.7% 0 in 118 W/m2
15:49 40.1 °F 34.9 °F 29.9 in SW 4.5 mph 8.1 mph 81.5% 0 in 109 W/m2
15:54 39.7 °F 34.3 °F 29.9 in SW 4.8 mph 8 mph 80.7% 0 in 93 W/m2
15:59 39.6 °F 34.5 °F 29.9 in SW 3.9 mph 7 mph 81.7% 0 in 35 W/m2
16:04 39.4 °F 34.3 °F 29.9 in SW 4 mph 6 mph 82.1% 0 in 32 W/m2
16:09 39.2 °F 34.2 °F 29.9 in SW 2.7 mph 6 mph 82.2% 0 in 30 W/m2
16:14 39 °F 34 °F 29.9 in SW 3.1 mph 6 mph 82.3% 0 in 28 W/m2
16:19 38.7 °F 34 °F 29.9 in SW 2.9 mph 5 mph 82.8% 0 in 23 W/m2
16:24 38.3 °F 34 °F 29.9 in WSW 2 mph 5 mph 83.7% 0 in 18 W/m2
16:29 37.9 °F 33.8 °F 29.9 in WSW 1.6 mph 3 mph 85% 0 in 14 W/m2
16:34 37.6 °F 33.8 °F 29.9 in WSW 0.6 mph 2.3 mph 86% 0 in 12 W/m2
16:39 37.2 °F 33.6 °F 29.9 in Calm   2 mph 86.8% 0 in 9 W/m2
16:44 37 °F 33.6 °F 29.9 in SW 0.4 mph 3 mph 87.4% 0 in 7 W/m2
16:49 36.9 °F 33.3 °F 29.9 in SW 1.2 mph 3.5 mph 87.1% 0 in 5 W/m2
16:54 36.3 °F 33.1 °F 29.9 in SW 0.3 mph 3 mph 88% 0 in 0 W/m2
16:59 36 °F 32.9 °F 29.9 in Calm   1 mph 88.8% 0 in 0 W/m2
17:04 35.4 °F 32.7 °F 29.9 in Calm     89.5% 0 in 0 W/m2
17:09 35.2 °F 32.7 °F 29.9 in Calm     90.2% 0 in 0 W/m2
17:14 34.9 °F 32.5 °F 29.9 in Calm     90.6% 0 in 0 W/m2
17:19 34.7 °F 32.4 °F 29.9 in Calm     91% 0 in 0 W/m2
17:24 34.9 °F 32.7 °F 29.9 in Calm     91.8% 0 in 0 W/m2
17:29 34.7 °F 32.4 °F 29.9 in Calm     91% 0 in 0 W/m2
17:34 34.2 °F 32 °F 29.9 in Calm     91.7% 0 in 0 W/m2
17:39 33.6 °F 31.6 °F 29.9 in Calm     92.3% 0 in 0 W/m2
17:44 33.4 °F 31.6 °F 29.9 in Calm     93% 0 in 0 W/m2
17:49 33.6 °F 31.8 °F 29.9 in SW 0.4 mph 2.3 mph 93% 0 in 0 W/m2
17:54 33.4 °F 31.6 °F 29.9 in SW 1.1 mph 2.3 mph 93% 0 in 0 W/m2
17:59 33.3 °F 31.5 °F 29.9 in WSW 1.3 mph 2.3 mph 93% 0 in 0 W/m2
18:04 33.1 °F 31.3 °F 29.9 in WSW 1.1 mph 2.3 mph 93% 0 in 0 W/m2
18:09 33.1 °F 31.3 °F 29.9 in WSW 0.4 mph 2.3 mph 93% 0 in 0 W/m2
18:14 33.1 °F 31.5 °F 29.9 in Calm     93.4% 0 in 0 W/m2
18:19 32.5 °F 30.7 °F 29.9 in Calm     93.2% 0 in 0 W/m2
18:24 32.4 °F 30.9 °F 29.9 in West 1.3 mph 4 mph 94% 0 in 0 W/m2
18:29 32.4 °F 30.7 °F 29.9 in WNW 2.7 mph 4 mph 94.1% 0 in 0 W/m2
18:34 32.9 °F 31.5 °F 29.9 in WNW 2.7 mph 4 mph 94.3% 0 in 0 W/m2
18:39 32.9 °F 31.5 °F 29.9 in NW 1.7 mph 4 mph 94% 0 in 0 W/m2
18:44 32.7 °F 31.3 °F 29.9 in NW 1.6 mph 3 mph 94% 0 in 0 W/m2
18:49 32.5 °F 30.9 °F 29.9 in West 2.6 mph 5 mph 93.7% 0 in 0 W/m2
18:54 31.5 °F 29.8 °F 29.9 in WSW 2.6 mph 5 mph 93.5% 0 in 0 W/m2
18:59 31.5 °F 30 °F 29.9 in West 2.2 mph 5 mph 94.8% 0 in 0 W/m2
19:04 31.5 °F 30.2 °F 29.9 in WSW 2.4 mph 4 mph 95% 0 in 0 W/m2
19:09 31.6 °F 30.6 °F 29.9 in West 1.9 mph 3.5 mph 95.8% 0 in 0 W/m2
19:14 31.6 °F 30.6 °F 29.9 in West 0.6 mph 3 mph 96% 0 in 0 W/m2
19:19 31.3 °F 30.2 °F 29.9 in WSW 2.5 mph 4 mph 95.7% 0 in 0 W/m2
19:24 31.1 °F 30 °F 29.9 in WSW 1.9 mph 4 mph 95.7% 0 in 0 W/m2
19:29 30.9 °F 29.8 °F 29.9 in West 1.5 mph 3.5 mph 96% 0 in 0 W/m2
19:34 30.2 °F 29.1 °F 29.9 in West 1.9 mph 3.5 mph 95.9% 0 in 0 W/m2
19:39 29.3 °F 28.2 °F 29.9 in WSW 2.3 mph 3.5 mph 95.5% 0 in 0 W/m2
19:44 28.8 °F 27.9 °F 29.9 in WSW 2.3 mph 4 mph 96% 0 in 0 W/m2
19:49 28.6 °F 27.5 °F 29.9 in WSW 3 mph 5 mph 96% 0 in 0 W/m2
19:54 28.4 °F 27.3 °F 29.9 in WSW 4 mph 6 mph 96% 0 in 0 W/m2
19:59 28.2 °F 27.1 °F 29.9 in West 2.1 mph 6 mph 96% 0 in 0 W/m2
20:04 28.2 °F 27.5 °F 29.9 in West 1.2 mph 5 mph 96.7% 0 in 0 W/m2
20:09 28.2 °F 27.5 °F 29.9 in WSW 2.9 mph 5 mph 97% 0 in 0 W/m2
20:14 27.7 °F 27 °F 29.9 in WSW 3.6 mph 6 mph 96.4% 0 in 0 W/m2
20:19 27.7 °F 27.1 °F 29.9 in West 1.6 mph 6 mph 97% 0 in 0 W/m2
20:24 27.9 °F 27.1 °F 29.9 in WNW 1.5 mph 3.5 mph 97% 0 in 0 W/m2
20:29 28 °F 27.3 °F 29.9 in WNW 0.8 mph 3 mph 97% 0 in 0 W/m2
20:34 28 °F 27.3 °F 29.9 in WNW 0.6 mph 2.3 mph 97% 0 in 0 W/m2
20:39 28 °F 27.3 °F 29.9 in WNW 1.2 mph 2.3 mph 97% 0 in 0 W/m2
20:44 27.5 °F 26.8 °F 29.9 in West 1.5 mph 3.5 mph 97% 0 in 0 W/m2
20:49 27.3 °F 26.6 °F 29.9 in West 1.6 mph 3.5 mph 97% 0 in 0 W/m2
20:54 27 °F 26.4 °F 29.9 in West 1.5 mph 3.5 mph 97% 0 in 0 W/m2
20:59 27 °F 26.2 °F 29.9 in West 1.9 mph 3.5 mph 97% 0 in 0 W/m2
21:04 27 °F 26.2 °F 29.9 in West 0.9 mph 3 mph 97% 0 in 0 W/m2
21:09 26.8 °F 26.2 °F 29.9 in West 0.5 mph 2 mph 97% 0 in 0 W/m2
21:14 26.8 °F 26.1 °F 29.9 in West 1.6 mph 2.3 mph 97% 0 in 0 W/m2
21:19 26.6 °F 25.9 °F 29.9 in West 1 mph 2.3 mph 97% 0 in 0 W/m2
21:24 26.8 °F 26.1 °F 29.9 in West 0.1 mph 1.2 mph 97% 0 in 0 W/m2
21:29 26.8 °F 26.1 °F 29.9 in West 0.9 mph 2.3 mph 97% 0 in 0 W/m2
21:34 26.8 °F 26.1 °F 29.9 in WSW 0.9 mph 3 mph 97% 0 in 0 W/m2
21:39 26.6 °F 25.9 °F 29.9 in WSW 2.1 mph 3.5 mph 97% 0 in 0 W/m2
21:44 26.4 °F 25.9 °F 29.9 in WSW 0.4 mph 3 mph 97% 0 in 0 W/m2
21:49 26.8 °F 26.1 °F 29.9 in WSW 0.7 mph 2.3 mph 97% 0 in 0 W/m2
21:54 27.1 °F 26.4 °F 29.9 in SW 2.1 mph 3.5 mph 97% 0 in 0 W/m2
21:59 27.5 °F 26.8 °F 29.9 in ESE 0.8 mph 3.5 mph 97% 0 in 0 W/m2
22:04 27.9 °F 27.1 °F 29.9 in NE 1 mph 2.3 mph 97% 0 in 0 W/m2
22:09 28.2 °F 27.5 °F 29.9 in WNW 1.6 mph 4 mph 97% 0 in 0 W/m2
22:14 28 °F 27.3 °F 29.9 in WSW 2.9 mph 4 mph 97% 0 in 0 W/m2
22:19 27.9 °F 27.1 °F 29.9 in WSW 3.8 mph 6 mph 97% 0 in 0 W/m2
22:24 27.9 °F 27.1 °F 29.9 in West 2.7 mph 6 mph 97% 0 in 0 W/m2
22:29 27.9 °F 27.3 °F 29.9 in WSW 3 mph 5 mph 97% 0 in 0 W/m2
22:34 28 °F 27.3 °F 29.9 in WSW 4.3 mph 8.1 mph 97% 0 in 0 W/m2
22:39 28 °F 27.5 °F 29.9 in WSW 4.1 mph 8 mph 97% 0 in 0 W/m2
22:44 28.4 °F 27.7 °F 29.9 in SW 3.9 mph 7 mph 97% 0 in 0 W/m2
22:49 28.4 °F 27.7 °F 29.9 in WSW 3.7 mph 6 mph 97% 0 in 0 W/m2
22:54 28.4 °F 27.7 °F 29.9 in WSW 3.4 mph 6 mph 97% 0 in 0 W/m2
22:59 28.6 °F 27.9 °F 29.9 in WSW 4.1 mph 6 mph 97% 0 in 0 W/m2
23:04 28.8 °F 28 °F 29.9 in WSW 4.7 mph 7 mph 97% 0 in 0 W/m2
23:09 28.9 °F 28.2 °F 29.9 in WSW 4.2 mph 7 mph 97% 0 in 0 W/m2
23:14 28.9 °F 28.2 °F 29.9 in WSW 4.2 mph 6 mph 97% 0 in 0 W/m2
23:19 28.9 °F 28.4 °F 29.9 in WSW 2.7 mph 6 mph 97% 0 in 0 W/m2
23:24 28.9 °F 28.2 °F 29.9 in SW 1.9 mph 5 mph 97% 0 in 0 W/m2
23:29 28.9 °F 28.2 °F 29.9 in SW 1.5 mph 4 mph 97% 0 in 0 W/m2
23:34 28.9 °F 28.2 °F 29.9 in WSW 2.3 mph 4 mph 97% 0 in 0 W/m2
23:39 28.9 °F 28.2 °F 29.9 in WSW 1.4 mph 3.5 mph 97% 0 in 0 W/m2
23:44 28.9 °F 28.2 °F 29.9 in WSW 0.3 mph 2.3 mph 97% 0 in 0 W/m2
23:49 28.9 °F 28.4 °F 29.9 in WSW 0.1 mph 1.2 mph 97.5% 0 in 0 W/m2
23:54 28.9 °F 28.4 °F 29.9 in WSW 0.1 mph 1.2 mph 97.9% 0 in 0 W/m2
23:59 28.9 °F 28.2 °F 29.9 in WSW 0.5 mph 2.3 mph 97% 0 in 0 W/m2
Stazione Meteorologica MeteoMincio Rivalta s/M (MN)
Con i complimenti di Weather Underground - 4 mb


METEO PILLOLE
Massima caduta di neve in una singola stagione
Monte Rainier, USA
Tra il 1971 e 1972 caddero 28.5 metri di neve.

Do NOT follow this link or you will be banned from the site!